Terminal Aerodrome Forecast
Issued by NWS

Home | Current Version | Previous Version | Text Only | Print | Product List | Glossary On
Versions: 1 2 3 4 5 6 7 8 9 10 11 12 13 14 15 16 17 18 19 20 21 22 23 24
000
FTAK31 PANC 031746
TAFAAQ
TAF
PAAQ 031746Z 0318/0418 36006KT P6SM VCFG SCT010 OVC080
     FM032100 14015G25KT P6SM VCSH BKN060
     FM040000 14020G30KT P6SM SCT060
     FM040700 11007KT P6SM -SHRA BKN050 WS020/10035KT=

USA.gov is the U.S. government's official web portal to all federal, state and local government web resources and services.